sensor_id;sensor_type;location;lat;lon;timestamp;temperature;humidity
48376;DHT22;34178;50.904;11.560;2023-07-02T00:01:12;17.80;99.90
48376;DHT22;34178;50.904;11.560;2023-07-02T00:03:38;17.70;99.90
48376;DHT22;34178;50.904;11.560;2023-07-02T00:06:04;17.70;99.90
48376;DHT22;34178;50.904;11.560;2023-07-02T00:08:30;17.70;99.90
48376;DHT22;34178;50.904;11.560;2023-07-02T00:10:56;17.70;99.90
48376;DHT22;34178;50.904;11.560;2023-07-02T00:13:21;17.70;99.90
48376;DHT22;34178;50.904;11.560;2023-07-02T00:15:47;17.70;99.90
48376;DHT22;34178;50.904;11.560;2023-07-02T00:18:13;17.60;99.90
48376;DHT22;34178;50.904;11.560;2023-07-02T00:20:42;17.60;99.90
48376;DHT22;34178;50.904;11.560;2023-07-02T00:23:08;17.60;99.90
48376;DHT22;34178;50.904;11.560;2023-07-02T00:25:35;17.60;99.90
48376;DHT22;34178;50.904;11.560;2023-07-02T00:28:01;17.60;99.90
48376;DHT22;34178;50.904;11.560;2023-07-02T00:30:27;17.60;99.90
48376;DHT22;34178;50.904;11.560;2023-07-02T00:32:52;17.60;99.90
48376;DHT22;34178;50.904;11.560;2023-07-02T00:35:18;17.60;99.90
48376;DHT22;34178;50.904;11.560;2023-07-02T00:37:44;17.50;99.90
48376;DHT22;34178;50.904;11.560;2023-07-02T00:40:09;17.50;99.90
48376;DHT22;34178;50.904;11.560;2023-07-02T00:42:35;17.40;99.90
48376;DHT22;34178;50.904;11.560;2023-07-02T00:45:01;17.30;99.90
48376;DHT22;34178;50.904;11.560;2023-07-02T00:47:34;17.20;99.90
48376;DHT22;34178;50.904;11.560;2023-07-02T00:50:00;17.10;99.90
48376;DHT22;34178;50.904;11.560;2023-07-02T00:52:27;17.10;99.90
48376;DHT22;34178;50.904;11.560;2023-07-02T00:54:53;17.00;99.90
48376;DHT22;34178;50.904;11.560;2023-07-02T00:57:19;17.00;99.90
48376;DHT22;34178;50.904;11.560;2023-07-02T00:59:45;16.90;99.90
48376;DHT22;34178;50.904;11.560;2023-07-02T01:02:11;16.90;99.90
48376;DHT22;34178;50.904;11.560;2023-07-02T01:04:38;16.90;99.90
48376;DHT22;34178;50.904;11.560;2023-07-02T01:07:04;16.90;99.90
48376;DHT22;34178;50.904;11.560;2023-07-02T01:09:35;16.90;99.90
48376;DHT22;34178;50.904;11.560;2023-07-02T01:12:04;16.90;99.90
48376;DHT22;34178;50.904;11.560;2023-07-02T01:17:01;16.90;99.90
48376;DHT22;34178;50.904;11.560;2023-07-02T01:19:50;16.90;99.90
48376;DHT22;34178;50.904;11.560;2023-07-02T01:22:20;16.90;99.90
48376;DHT22;34178;50.904;11.560;2023-07-02T01:24:46;16.90;99.90
48376;DHT22;34178;50.904;11.560;2023-07-02T01:27:14;17.00;99.90
48376;DHT22;34178;50.904;11.560;2023-07-02T01:29:40;17.00;99.90
48376;DHT22;34178;50.904;11.560;2023-07-02T01:32:06;17.00;99.90
48376;DHT22;34178;50.904;11.560;2023-07-02T01:34:33;17.00;99.90
48376;DHT22;34178;50.904;11.560;2023-07-02T01:36:59;17.00;99.90
48376;DHT22;34178;50.904;11.560;2023-07-02T01:39:25;17.00;99.90
48376;DHT22;34178;50.904;11.560;2023-07-02T01:41:52;17.00;99.90
48376;DHT22;34178;50.904;11.560;2023-07-02T01:44:18;17.00;99.90
48376;DHT22;34178;50.904;11.560;2023-07-02T01:46:46;17.00;99.90
48376;DHT22;34178;50.904;11.560;2023-07-02T01:49:23;17.00;99.90
48376;DHT22;34178;50.904;11.560;2023-07-02T01:51:52;17.00;99.90
48376;DHT22;34178;50.904;11.560;2023-07-02T01:54:19;17.00;99.90
48376;DHT22;34178;50.904;11.560;2023-07-02T01:56:45;17.00;99.90
48376;DHT22;34178;50.904;11.560;2023-07-02T01:59:11;17.00;99.90
48376;DHT22;34178;50.904;11.560;2023-07-02T02:01:37;17.00;99.90
48376;DHT22;34178;50.904;11.560;2023-07-02T02:04:07;17.10;99.90
48376;DHT22;34178;50.904;11.560;2023-07-02T02:06:33;17.10;99.90
48376;DHT22;34178;50.904;11.560;2023-07-02T02:09:00;17.10;99.90
48376;DHT22;34178;50.904;11.560;2023-07-02T02:11:25;17.00;99.90
48376;DHT22;34178;50.904;11.560;2023-07-02T02:13:51;17.10;99.90
48376;DHT22;34178;50.904;11.560;2023-07-02T02:16:17;17.10;99.90
48376;DHT22;34178;50.904;11.560;2023-07-02T02:18:43;17.10;99.90
48376;DHT22;34178;50.904;11.560;2023-07-02T02:21:09;17.10;99.90
48376;DHT22;34178;50.904;11.560;2023-07-02T02:23:34;17.20;99.90
48376;DHT22;34178;50.904;11.560;2023-07-02T02:26:00;17.20;99.90
48376;DHT22;34178;50.904;11.560;2023-07-02T02:28:26;17.20;99.90
48376;DHT22;34178;50.904;11.560;2023-07-02T02:30:51;17.20;99.90
48376;DHT22;34178;50.904;11.560;2023-07-02T02:33:17;17.20;99.90
48376;DHT22;34178;50.904;11.560;2023-07-02T02:35:43;17.20;99.90
48376;DHT22;34178;50.904;11.560;2023-07-02T02:38:08;17.10;99.90
48376;DHT22;34178;50.904;11.560;2023-07-02T02:40:34;17.10;99.90
48376;DHT22;34178;50.904;11.560;2023-07-02T02:43:00;17.10;99.90
48376;DHT22;34178;50.904;11.560;2023-07-02T02:45:26;17.10;99.90
48376;DHT22;34178;50.904;11.560;2023-07-02T02:47:52;17.00;99.90
48376;DHT22;34178;50.904;11.560;2023-07-02T02:50:17;17.00;99.90
48376;DHT22;34178;50.904;11.560;2023-07-02T02:52:43;16.90;99.90
48376;DHT22;34178;50.904;11.560;2023-07-02T02:55:09;16.80;99.90
48376;DHT22;34178;50.904;11.560;2023-07-02T02:57:36;16.80;99.90
48376;DHT22;34178;50.904;11.560;2023-07-02T03:00:02;16.70;99.90
48376;DHT22;34178;50.904;11.560;2023-07-02T03:02:28;16.70;99.90
48376;DHT22;34178;50.904;11.560;2023-07-02T03:04:54;16.70;99.90
48376;DHT22;34178;50.904;11.560;2023-07-02T03:07:19;16.70;99.90
48376;DHT22;34178;50.904;11.560;2023-07-02T03:09:45;16.80;99.90
48376;DHT22;34178;50.904;11.560;2023-07-02T03:12:11;16.80;99.90
48376;DHT22;34178;50.904;11.560;2023-07-02T03:14:36;16.70;99.90
48376;DHT22;34178;50.904;11.560;2023-07-02T03:17:02;16.70;99.90
48376;DHT22;34178;50.904;11.560;2023-07-02T03:19:28;16.70;99.90
48376;DHT22;34178;50.904;11.560;2023-07-02T03:21:54;16.60;99.90
48376;DHT22;34178;50.904;11.560;2023-07-02T03:24:20;16.60;99.90
48376;DHT22;34178;50.904;11.560;2023-07-02T03:26:46;16.60;99.90
48376;DHT22;34178;50.904;11.560;2023-07-02T03:29:12;16.60;99.90
48376;DHT22;34178;50.904;11.560;2023-07-02T03:31:38;16.60;99.90
48376;DHT22;34178;50.904;11.560;2023-07-02T03:34:06;16.60;99.90
48376;DHT22;34178;50.904;11.560;2023-07-02T03:36:32;16.60;99.90
48376;DHT22;34178;50.904;11.560;2023-07-02T03:38:58;16.60;99.90
48376;DHT22;34178;50.904;11.560;2023-07-02T03:41:24;16.60;99.90
48376;DHT22;34178;50.904;11.560;2023-07-02T03:43:50;16.60;99.90
48376;DHT22;34178;50.904;11.560;2023-07-02T03:46:16;16.50;99.90
48376;DHT22;34178;50.904;11.560;2023-07-02T03:48:42;16.50;99.90
48376;DHT22;34178;50.904;11.560;2023-07-02T03:51:07;16.50;99.90
48376;DHT22;34178;50.904;11.560;2023-07-02T03:53:33;16.50;99.90
48376;DHT22;34178;50.904;11.560;2023-07-02T03:55:59;16.40;99.90
48376;DHT22;34178;50.904;11.560;2023-07-02T03:58:25;16.40;99.90
48376;DHT22;34178;50.904;11.560;2023-07-02T04:00:51;16.30;99.90
48376;DHT22;34178;50.904;11.560;2023-07-02T04:03:16;16.30;99.90
48376;DHT22;34178;50.904;11.560;2023-07-02T04:05:43;16.30;99.90
48376;DHT22;34178;50.904;11.560;2023-07-02T04:08:09;16.30;99.90
48376;DHT22;34178;50.904;11.560;2023-07-02T04:10:35;16.30;99.90
48376;DHT22;34178;50.904;11.560;2023-07-02T04:13:00;16.30;99.90
48376;DHT22;34178;50.904;11.560;2023-07-02T04:15:26;16.40;99.90
48376;DHT22;34178;50.904;11.560;2023-07-02T04:17:52;16.40;99.90
48376;DHT22;34178;50.904;11.560;2023-07-02T04:20:19;16.50;99.90
48376;DHT22;34178;50.904;11.560;2023-07-02T04:22:45;16.50;99.90
48376;DHT22;34178;50.904;11.560;2023-07-02T04:25:12;16.50;99.90
48376;DHT22;34178;50.904;11.560;2023-07-02T04:27:41;16.50;99.90
48376;DHT22;34178;50.904;11.560;2023-07-02T04:30:08;16.50;99.90
48376;DHT22;34178;50.904;11.560;2023-07-02T04:32:35;16.60;99.90
48376;DHT22;34178;50.904;11.560;2023-07-02T04:35:01;16.60;99.90
48376;DHT22;34178;50.904;11.560;2023-07-02T04:37:27;16.60;99.90
48376;DHT22;34178;50.904;11.560;2023-07-02T04:39:54;16.80;99.90
48376;DHT22;34178;50.904;11.560;2023-07-02T04:42:20;16.80;99.90
48376;DHT22;34178;50.904;11.560;2023-07-02T04:44:45;16.80;99.90
48376;DHT22;34178;50.904;11.560;2023-07-02T04:47:11;16.80;99.90
48376;DHT22;34178;50.904;11.560;2023-07-02T04:49:38;16.80;99.90
48376;DHT22;34178;50.904;11.560;2023-07-02T04:52:04;16.90;99.90
48376;DHT22;34178;50.904;11.560;2023-07-02T04:54:29;17.00;99.90
48376;DHT22;34178;50.904;11.560;2023-07-02T04:56:55;17.20;99.90
48376;DHT22;34178;50.904;11.560;2023-07-02T04:59:21;17.20;99.90
48376;DHT22;34178;50.904;11.560;2023-07-02T05:01:47;17.40;99.90
48376;DHT22;34178;50.904;11.560;2023-07-02T05:04:13;17.50;99.90
48376;DHT22;34178;50.904;11.560;2023-07-02T05:06:39;17.60;99.90
48376;DHT22;34178;50.904;11.560;2023-07-02T05:09:05;17.70;99.90
48376;DHT22;34178;50.904;11.560;2023-07-02T05:11:30;17.70;99.90
48376;DHT22;34178;50.904;11.560;2023-07-02T05:13:56;17.70;99.90
48376;DHT22;34178;50.904;11.560;2023-07-02T05:16:22;17.70;99.90
48376;DHT22;34178;50.904;11.560;2023-07-02T05:18:47;17.80;99.90
48376;DHT22;34178;50.904;11.560;2023-07-02T05:21:17;17.80;99.90
48376;DHT22;34178;50.904;11.560;2023-07-02T09:59:33;21.50;92.90
48376;DHT22;34178;50.904;11.560;2023-07-02T10:01:59;21.30;93.00
48376;DHT22;34178;50.904;11.560;2023-07-02T10:04:25;21.30;93.00
48376;DHT22;34178;50.904;11.560;2023-07-02T10:06:55;21.30;93.60
48376;DHT22;34178;50.904;11.560;2023-07-02T10:09:35;21.50;95.10
48376;DHT22;34178;50.904;11.560;2023-07-02T13:28:40;26.90;73.20
48376;DHT22;34178;50.904;11.560;2023-07-02T13:31:06;28.20;71.80
48376;DHT22;34178;50.904;11.560;2023-07-02T13:33:33;27.90;70.10
48376;DHT22;34178;50.904;11.560;2023-07-02T13:35:59;27.00;70.60
48376;DHT22;34178;50.904;11.560;2023-07-02T13:38:24;25.80;72.70
48376;DHT22;34178;50.904;11.560;2023-07-02T13:40:50;25.30;73.10
48376;DHT22;34178;50.904;11.560;2023-07-02T13:43:16;24.90;73.80
48376;DHT22;34178;50.904;11.560;2023-07-02T13:45:41;24.70;74.50
48376;DHT22;34178;50.904;11.560;2023-07-02T13:48:07;24.70;73.80
48376;DHT22;34178;50.904;11.560;2023-07-02T13:50:33;25.10;73.70
48376;DHT22;34178;50.904;11.560;2023-07-02T13:52:58;25.80;74.90
48376;DHT22;34178;50.904;11.560;2023-07-02T13:55:24;26.90;70.60
48376;DHT22;34178;50.904;11.560;2023-07-02T13:57:54;27.30;70.90
48376;DHT22;34178;50.904;11.560;2023-07-02T14:00:21;28.60;69.20
48376;DHT22;34178;50.904;11.560;2023-07-02T14:02:46;30.10;67.60
48376;DHT22;34178;50.904;11.560;2023-07-02T14:05:12;30.10;66.50
48376;DHT22;34178;50.904;11.560;2023-07-02T14:07:38;29.40;67.00
48376;DHT22;34178;50.904;11.560;2023-07-02T14:10:04;29.30;67.00
48376;DHT22;34178;50.904;11.560;2023-07-02T14:12:30;28.70;66.10
48376;DHT22;34178;50.904;11.560;2023-07-02T14:14:55;27.40;70.10
48376;DHT22;34178;50.904;11.560;2023-07-02T14:17:21;26.90;69.10
48376;DHT22;34178;50.904;11.560;2023-07-02T14:19:47;26.30;69.70
48376;DHT22;34178;50.904;11.560;2023-07-02T14:22:12;25.90;71.70
48376;DHT22;34178;50.904;11.560;2023-07-02T14:24:38;25.30;71.90
48376;DHT22;34178;50.904;11.560;2023-07-02T14:27:04;25.10;74.40
48376;DHT22;34178;50.904;11.560;2023-07-02T14:29:30;25.80;72.60
48376;DHT22;34178;50.904;11.560;2023-07-02T14:31:55;25.80;72.10
48376;DHT22;34178;50.904;11.560;2023-07-02T14:34:21;26.60;74.30
48376;DHT22;34178;50.904;11.560;2023-07-02T14:36:47;28.80;70.10
48376;DHT22;34178;50.904;11.560;2023-07-02T14:39:12;30.10;68.40
48376;DHT22;34178;50.904;11.560;2023-07-02T14:41:38;31.30;67.20
48376;DHT22;34178;50.904;11.560;2023-07-02T14:44:04;31.40;66.30
48376;DHT22;34178;50.904;11.560;2023-07-02T14:46:30;29.50;66.00
48376;DHT22;34178;50.904;11.560;2023-07-02T14:48:56;28.80;67.20
48376;DHT22;34178;50.904;11.560;2023-07-02T14:51:22;28.90;67.20
48376;DHT22;34178;50.904;11.560;2023-07-02T14:53:49;30.30;67.90
48376;DHT22;34178;50.904;11.560;2023-07-02T14:56:15;31.80;65.60
48376;DHT22;34178;50.904;11.560;2023-07-02T14:58:41;33.30;62.90
48376;DHT22;34178;50.904;11.560;2023-07-02T15:01:06;32.50;60.70
48376;DHT22;34178;50.904;11.560;2023-07-02T15:03:32;30.70;63.30
48376;DHT22;34178;50.904;11.560;2023-07-02T15:06:09;29.60;63.20
48376;DHT22;34178;50.904;11.560;2023-07-02T15:08:35;28.60;65.00
48376;DHT22;34178;50.904;11.560;2023-07-02T15:11:01;28.30;65.20
48376;DHT22;34178;50.904;11.560;2023-07-02T15:13:27;27.90;65.90
48376;DHT22;34178;50.904;11.560;2023-07-02T15:15:52;28.20;65.80
48376;DHT22;34178;50.904;11.560;2023-07-02T15:18:18;28.00;67.00
48376;DHT22;34178;50.904;11.560;2023-07-02T15:20:46;29.80;65.50
48376;DHT22;34178;50.904;11.560;2023-07-02T15:23:12;30.40;64.10
48376;DHT22;34178;50.904;11.560;2023-07-02T15:25:38;29.40;64.60
48376;DHT22;34178;50.904;11.560;2023-07-02T15:28:04;27.70;65.50
48376;DHT22;34178;50.904;11.560;2023-07-02T15:30:30;27.00;68.60
48376;DHT22;34178;50.904;11.560;2023-07-02T15:32:56;26.20;68.00
48376;DHT22;34178;50.904;11.560;2023-07-02T15:35:22;25.90;68.60
48376;DHT22;34178;50.904;11.560;2023-07-02T15:37:48;25.90;70.50
48376;DHT22;34178;50.904;11.560;2023-07-02T15:40:14;26.30;70.00
48376;DHT22;34178;50.904;11.560;2023-07-02T15:42:40;28.90;67.40
48376;DHT22;34178;50.904;11.560;2023-07-02T15:45:06;31.50;64.50
48376;DHT22;34178;50.904;11.560;2023-07-02T15:47:33;32.60;62.40
48376;DHT22;34178;50.904;11.560;2023-07-02T15:49:59;31.00;62.90
48376;DHT22;34178;50.904;11.560;2023-07-02T15:52:25;28.80;65.00
48376;DHT22;34178;50.904;11.560;2023-07-02T15:54:51;27.60;66.10
48376;DHT22;34178;50.904;11.560;2023-07-02T15:57:17;26.40;67.30
48376;DHT22;34178;50.904;11.560;2023-07-02T15:59:42;26.10;68.50
48376;DHT22;34178;50.904;11.560;2023-07-02T16:02:08;26.10;68.30
48376;DHT22;34178;50.904;11.560;2023-07-02T16:04:35;27.40;68.20
48376;DHT22;34178;50.904;11.560;2023-07-02T16:07:01;27.20;67.10
48376;DHT22;34178;50.904;11.560;2023-07-02T16:09:27;27.80;67.50
48376;DHT22;34178;50.904;11.560;2023-07-02T16:11:53;29.90;65.50
48376;DHT22;34178;50.904;11.560;2023-07-02T16:14:19;29.40;64.80
48376;DHT22;34178;50.904;11.560;2023-07-02T16:16:47;28.40;65.90
48376;DHT22;34178;50.904;11.560;2023-07-02T16:19:20;29.10;65.40
48376;DHT22;34178;50.904;11.560;2023-07-02T16:21:46;32.70;62.10
48376;DHT22;34178;50.904;11.560;2023-07-02T16:24:25;31.40;62.70
48376;DHT22;34178;50.904;11.560;2023-07-02T16:26:51;28.90;64.70
48376;DHT22;34178;50.904;11.560;2023-07-02T16:29:18;29.50;64.60
48376;DHT22;34178;50.904;11.560;2023-07-02T16:31:49;33.40;60.80
48376;DHT22;34178;50.904;11.560;2023-07-02T16:34:15;36.10;59.10
48376;DHT22;34178;50.904;11.560;2023-07-02T16:36:42;38.50;57.00
48376;DHT22;34178;50.904;11.560;2023-07-02T16:39:08;37.30;55.00
48376;DHT22;34178;50.904;11.560;2023-07-02T16:41:35;37.50;56.10
48376;DHT22;34178;50.904;11.560;2023-07-02T16:44:03;35.60;54.90
48376;DHT22;34178;50.904;11.560;2023-07-02T16:46:31;30.50;60.00
48376;DHT22;34178;50.904;11.560;2023-07-02T16:48:58;29.20;61.60
48376;DHT22;34178;50.904;11.560;2023-07-02T16:51:23;30.60;62.20
48376;DHT22;34178;50.904;11.560;2023-07-02T16:53:49;34.60;57.60
48376;DHT22;34178;50.904;11.560;2023-07-02T16:56:15;36.40;55.10
48376;DHT22;34178;50.904;11.560;2023-07-02T16:58:40;32.90;57.60
48376;DHT22;34178;50.904;11.560;2023-07-02T17:01:11;29.70;61.10
48376;DHT22;34178;50.904;11.560;2023-07-02T17:03:37;30.20;61.20
48376;DHT22;34178;50.904;11.560;2023-07-02T17:06:05;28.90;61.80
48376;DHT22;34178;50.904;11.560;2023-07-02T17:08:37;29.50;62.80
48376;DHT22;34178;50.904;11.560;2023-07-02T17:11:04;32.60;59.00
48376;DHT22;34178;50.904;11.560;2023-07-02T17:13:30;31.10;59.50
48376;DHT22;34178;50.904;11.560;2023-07-02T17:15:56;29.90;61.40
48376;DHT22;34178;50.904;11.560;2023-07-02T17:18:22;29.20;62.10
48376;DHT22;34178;50.904;11.560;2023-07-02T17:20:54;28.50;63.10
48376;DHT22;34178;50.904;11.560;2023-07-02T17:23:21;27.90;64.10
48376;DHT22;34178;50.904;11.560;2023-07-02T17:25:47;28.20;63.70
48376;DHT22;34178;50.904;11.560;2023-07-02T17:28:13;28.40;62.90
48376;DHT22;34178;50.904;11.560;2023-07-02T17:30:38;28.30;63.50
48376;DHT22;34178;50.904;11.560;2023-07-02T17:33:06;27.80;64.00
48376;DHT22;34178;50.904;11.560;2023-07-02T17:35:41;28.40;64.60
48376;DHT22;34178;50.904;11.560;2023-07-02T17:38:08;28.10;64.10
48376;DHT22;34178;50.904;11.560;2023-07-02T17:40:39;27.90;65.20
48376;DHT22;34178;50.904;11.560;2023-07-02T17:43:04;27.10;65.00
48376;DHT22;34178;50.904;11.560;2023-07-02T17:45:30;26.40;65.50
48376;DHT22;34178;50.904;11.560;2023-07-02T17:47:56;26.00;66.30
48376;DHT22;34178;50.904;11.560;2023-07-02T17:50:22;25.60;66.60
48376;DHT22;34178;50.904;11.560;2023-07-02T17:52:47;25.30;66.80
48376;DHT22;34178;50.904;11.560;2023-07-02T17:55:13;25.00;67.70
48376;DHT22;34178;50.904;11.560;2023-07-02T17:57:39;24.90;67.10
48376;DHT22;34178;50.904;11.560;2023-07-02T18:00:06;24.90;67.10
48376;DHT22;34178;50.904;11.560;2023-07-02T18:02:33;24.90;66.30
48376;DHT22;34178;50.904;11.560;2023-07-02T18:04:59;24.80;66.70
48376;DHT22;34178;50.904;11.560;2023-07-02T18:07:24;24.70;66.40
48376;DHT22;34178;50.904;11.560;2023-07-02T18:09:51;24.70;67.00
48376;DHT22;34178;50.904;11.560;2023-07-02T18:12:20;24.50;67.90
48376;DHT22;34178;50.904;11.560;2023-07-02T18:14:48;24.20;67.80
48376;DHT22;34178;50.904;11.560;2023-07-02T18:17:15;24.00;68.60
48376;DHT22;34178;50.904;11.560;2023-07-02T18:19:41;23.90;69.00
48376;DHT22;34178;50.904;11.560;2023-07-02T18:22:07;23.70;69.30
48376;DHT22;34178;50.904;11.560;2023-07-02T18:24:38;23.60;69.90
48376;DHT22;34178;50.904;11.560;2023-07-02T18:27:05;23.40;70.80
48376;DHT22;34178;50.904;11.560;2023-07-02T18:29:33;23.30;71.00
48376;DHT22;34178;50.904;11.560;2023-07-02T18:32:03;23.20;71.10
48376;DHT22;34178;50.904;11.560;2023-07-02T18:34:31;23.10;71.40
48376;DHT22;34178;50.904;11.560;2023-07-02T18:36:59;23.00;72.10
48376;DHT22;34178;50.904;11.560;2023-07-02T18:39:27;23.00;72.10
48376;DHT22;34178;50.904;11.560;2023-07-02T18:41:58;23.00;72.10
48376;DHT22;34178;50.904;11.560;2023-07-02T18:44:24;23.00;74.40
48376;DHT22;34178;50.904;11.560;2023-07-02T18:46:53;22.90;72.80
48376;DHT22;34178;50.904;11.560;2023-07-02T18:49:20;22.80;73.60
48376;DHT22;34178;50.904;11.560;2023-07-02T18:51:46;22.70;75.80
48376;DHT22;34178;50.904;11.560;2023-07-02T18:54:12;22.50;77.10
48376;DHT22;34178;50.904;11.560;2023-07-02T18:56:38;22.40;74.00
48376;DHT22;34178;50.904;11.560;2023-07-02T18:59:04;22.20;75.20
48376;DHT22;34178;50.904;11.560;2023-07-02T19:01:29;22.00;75.40
48376;DHT22;34178;50.904;11.560;2023-07-02T19:03:55;21.90;75.80
48376;DHT22;34178;50.904;11.560;2023-07-02T19:06:23;21.70;75.70
48376;DHT22;34178;50.904;11.560;2023-07-02T19:08:49;21.50;76.10
48376;DHT22;34178;50.904;11.560;2023-07-02T19:11:14;21.40;78.60
48376;DHT22;34178;50.904;11.560;2023-07-02T19:13:40;21.30;80.30
48376;DHT22;34178;50.904;11.560;2023-07-02T19:16:06;21.00;80.90
48376;DHT22;34178;50.904;11.560;2023-07-02T19:18:31;20.80;81.00
48376;DHT22;34178;50.904;11.560;2023-07-02T19:20:59;20.60;79.80
48376;DHT22;34178;50.904;11.560;2023-07-02T19:23:25;20.40;82.00
48376;DHT22;34178;50.904;11.560;2023-07-02T19:25:53;20.20;80.80
48376;DHT22;34178;50.904;11.560;2023-07-02T19:28:19;20.10;83.90
48376;DHT22;34178;50.904;11.560;2023-07-02T19:30:45;19.80;84.70
48376;DHT22;34178;50.904;11.560;2023-07-02T19:33:11;19.50;84.80
48376;DHT22;34178;50.904;11.560;2023-07-02T19:35:38;19.40;84.60
48376;DHT22;34178;50.904;11.560;2023-07-02T19:38:04;19.30;85.40
48376;DHT22;34178;50.904;11.560;2023-07-02T19:40:33;19.20;86.40
48376;DHT22;34178;50.904;11.560;2023-07-02T19:42:59;19.10;88.20
48376;DHT22;34178;50.904;11.560;2023-07-02T19:45:24;19.00;88.80
48376;DHT22;34178;50.904;11.560;2023-07-02T19:47:50;18.90;89.20
48376;DHT22;34178;50.904;11.560;2023-07-02T22:33:18;15.80;99.90
48376;DHT22;34178;50.904;11.560;2023-07-02T22:35:45;15.70;99.90
48376;DHT22;34178;50.904;11.560;2023-07-02T22:38:11;15.70;99.90
48376;DHT22;34178;50.904;11.560;2023-07-02T22:40:37;15.70;99.90
48376;DHT22;34178;50.904;11.560;2023-07-02T22:43:02;15.70;99.90
48376;DHT22;34178;50.904;11.560;2023-07-02T22:45:28;15.60;99.90
48376;DHT22;34178;50.904;11.560;2023-07-02T22:47:54;15.50;99.90
48376;DHT22;34178;50.904;11.560;2023-07-02T22:50:21;15.50;99.90
48376;DHT22;34178;50.904;11.560;2023-07-02T22:52:47;15.50;99.90
48376;DHT22;34178;50.904;11.560;2023-07-02T22:55:14;15.60;99.90
48376;DHT22;34178;50.904;11.560;2023-07-02T22:57:40;15.50;99.90
48376;DHT22;34178;50.904;11.560;2023-07-02T23:00:12;15.50;99.90
48376;DHT22;34178;50.904;11.560;2023-07-02T23:02:43;15.50;99.90
48376;DHT22;34178;50.904;11.560;2023-07-02T23:05:15;15.40;99.90
48376;DHT22;34178;50.904;11.560;2023-07-02T23:07:42;15.40;99.90
48376;DHT22;34178;50.904;11.560;2023-07-02T23:10:11;15.40;99.90
48376;DHT22;34178;50.904;11.560;2023-07-02T23:12:42;15.40;99.90
48376;DHT22;34178;50.904;11.560;2023-07-02T23:15:10;15.40;99.90
48376;DHT22;34178;50.904;11.560;2023-07-02T23:17:40;15.40;99.90
48376;DHT22;34178;50.904;11.560;2023-07-02T23:20:06;15.40;99.90
48376;DHT22;34178;50.904;11.560;2023-07-02T23:22:32;15.30;99.90
48376;DHT22;34178;50.904;11.560;2023-07-02T23:24:58;15.30;99.90
48376;DHT22;34178;50.904;11.560;2023-07-02T23:27:24;15.40;99.90
48376;DHT22;34178;50.904;11.560;2023-07-02T23:29:49;15.40;99.90
48376;DHT22;34178;50.904;11.560;2023-07-02T23:32:20;15.40;99.90
48376;DHT22;34178;50.904;11.560;2023-07-02T23:34:46;15.30;99.90
48376;DHT22;34178;50.904;11.560;2023-07-02T23:37:12;15.40;99.90
48376;DHT22;34178;50.904;11.560;2023-07-02T23:39:40;15.40;99.90
48376;DHT22;34178;50.904;11.560;2023-07-02T23:42:06;15.40;99.90
48376;DHT22;34178;50.904;11.560;2023-07-02T23:44:32;15.50;99.90
48376;DHT22;34178;50.904;11.560;2023-07-02T23:46:57;15.50;99.90
48376;DHT22;34178;50.904;11.560;2023-07-02T23:49:23;15.50;99.90
48376;DHT22;34178;50.904;11.560;2023-07-02T23:51:49;15.50;99.90
48376;DHT22;34178;50.904;11.560;2023-07-02T23:54:15;15.50;99.90
48376;DHT22;34178;50.904;11.560;2023-07-02T23:56:40;15.60;99.90
48376;DHT22;34178;50.904;11.560;2023-07-02T23:59:06;15.60;99.90
